Погода METAR - Новосибирск (Толмачево)

Код аэропорта ICAO:
Кемерово, Абакан, Красноярск, Новосибирск
Код METAR: UNNT 251030Z 23012MPS 4500 -SHSN DRSN BKN018CB M02/M04 Q1005 R25/590238 R16/590332 NOSIG RMK QFE744/0992
TAF UNNT 250800Z 2509/2609 23008G15MPS 9999 -SHSN DRSN BKN016CB 
     TEMPO 2509/2603 3100 -SHSN BKN011CB 
     BECMG 2515/2518 18003G08MPS 
     FM260300 19006G12MPS 9999 BKN030 
     TEMPO 2603/2609 -SN BKN011
       

Погода - Сейчас

Время: 2020-01-25 17:30, местное
Направление ветра: Юго-запад (230°)
Скорость ветра: 12 м/с
Видимость:
Температура: -2°C
Точка росы: -4°C
Атмосферное давление: 1005 гПа

Архив погоды

Время, местное Направление Скорость, м/с Температура, °C Точка росы, °C Давление, гПа
2020-01-25 17:30 ЮЗ (230°) 12 -2 -4 1005
2020-01-25 14:00 ЮЗ (220°) 9 0 -2 1000
2020-01-24 19:00 ЮЮЗ (200°) 8 0 -1 1006
2020-01-24 06:30 ЮЮЗ (200°) 10 -1 -3 1007
2020-01-23 13:30 Ю (170°) 10 -5 -8 1012
2020-01-23 01:30 Ю (180°) 5 -7 -9 1015
2020-01-21 02:00 Ю (190°) 2 -21 -23 1023
2020-01-18 00:00 ЮЗ (210°) 10 -3 -4 1004
2020-01-15 21:30 Ю (180°) 6 -5 -8 1018
2020-01-10 06:00 Ю (180°) 3 -17 -19 1032
2020-01-09 12:00 Ю (180°) 3 -14 -16 1032
2020-01-09 03:00 Ю (190°) 3 -12 -14 1030
2020-01-08 14:30 Ю (170°) 4 -10 -13 1030
2020-01-04 08:30 ЮЗ (230°) 4 -8 -11 1021
2020-01-03 06:30 Ю (190°) 8 -2 -6 1015
2020-01-03 05:00 ЮЮЗ (200°) 8 -2 -6 1015
2020-01-01 14:00 Ю (180°) 7 -6 -10 1015
2019-12-29 18:30 Штиль 0 -18 -20 1021
2019-12-25 07:00 Ю (170°) 5 0 2000
2019-12-25 00:30 ЮЗ (230°) 4 -11 -14 1022
2019-12-23 05:00 ЮЮВ (150°) 4 -4 -6 1016
2019-12-22 09:00 ЮЮВ (160°) 3 -5 -6 1010
2019-12-21 18:00 ЮВ (120°) 7 0 0
2019-12-21 16:00 ЮВ (130°) 7 -2 -4 1007
2019-12-20 01:30 ЮВ (130°) 3 -6 -8 1016
2019-12-19 05:00 ЮВ (140°) 3 -8 -12 1023
2019-12-17 13:30 Ю (180°) 4 -12 -15 1035
2019-12-11 07:00 ЮЮЗ (200°) 6 -7 -8 1021
2019-12-09 18:00 Ю (170°) 4 -1 -2 1026
2019-12-04 07:00 ЮЮЗ (200°) 3 -4 -6 1026
2019-12-02 02:30 ЮЮВ (150°) 2 -18 -20 1036
2019-11-30 15:00 Ю (190°) 4 -9 -12 1038
2019-11-29 20:30 Ю (180°) 3 -11 -13 1034
2019-11-29 19:00 ЮЮЗ (200°) 4 -10 -12 1034
2019-11-27 08:00 ЮЮВ (160°) 4 -10 -12 1032
2019-11-24 23:00 ЮЮВ (160°) 3 -15 -18 1029
2019-11-23 07:30 ЮЮЗ (200°) 5 -14 -17 1037
2019-11-17 06:30 Ю (190°) 7 -12 -16 1025
2019-11-15 02:30 ЗЮЗ (260°) 3 -21 -24 1030
2019-11-14 08:30 С (10°) 3 -16 -18 1027
2019-11-12 21:30 ЮЗ (220°) 6 -5 -6 1017
2019-11-08 21:00 ЮЗ (210°) 5 2 0 1009
2019-11-06 21:00 Ю (190°) 5 1 -4 1023
2019-11-03 12:00 Ю (180°) 3 -2 -7 1037
2019-11-02 04:00 Ю (190°) 6 1 -5 1012
2019-10-31 16:00 СВ (40°) 5 3 0 1016
2019-10-30 03:00 С (360°) 2 -2 -5 1018
2019-10-29 09:30 ЮЗ (220°) 13, порывы до 19 11 6 993